Terminal Aerodrome Forecast
Issued by NWS

Home | Current Version | Previous Version | Text Only | Print | Product List | Glossary On
Versions: 1 2 3 4 5 6 7 8 9 10 11 12 13 14 15 16 17 18 19 20 21
000
FTUS41 KBGM 181739
TAFRME
TAF
KRME 181739Z 1818/1918 27008KT P6SM SCT020 OVC035
     FM182300 19004KT P6SM OVC050
     FM190300 10004KT P6SM SCT250
     FM191600 13007KT P6SM BKN050 OVC200=

USA.gov is the U.S. government's official web portal to all federal, state and local government web resources and services.